createdAt,value
2022-12-31T00:00:22.129Z,28.50
2022-12-31T00:03:10.021Z,26.47
2022-12-31T00:05:37.739Z,26.60
2022-12-31T00:08:05.227Z,27.00
2022-12-31T00:10:39.871Z,26.60
2022-12-31T00:13:11.747Z,26.80
2022-12-31T00:15:40.146Z,26.83
2022-12-31T00:18:08.387Z,27.67
2022-12-31T00:20:38.281Z,25.97
2022-12-31T00:23:05.506Z,25.97
2022-12-31T00:25:34.482Z,25.37
2022-12-31T00:28:02.088Z,26.37
2022-12-31T00:30:29.184Z,25.10
2022-12-31T00:32:56.493Z,24.73
2022-12-31T00:35:23.456Z,25.00
2022-12-31T00:37:53.280Z,26.70
2022-12-31T00:40:20.313Z,24.33
2022-12-31T00:42:47.593Z,25.97
2022-12-31T00:45:14.576Z,24.40
2022-12-31T00:47:41.786Z,25.30
2022-12-31T00:50:09.218Z,25.17
2022-12-31T00:52:36.622Z,24.43
2022-12-31T00:55:03.756Z,25.10
2022-12-31T00:57:30.972Z,25.57
2022-12-31T00:59:57.943Z,23.33
2022-12-31T01:02:25.321Z,23.67
2022-12-31T01:04:52.458Z,23.73
2022-12-31T01:07:19.689Z,23.80
2022-12-31T01:09:46.697Z,23.87
2022-12-31T01:12:13.904Z,22.93
2022-12-31T01:14:40.835Z,25.13
2022-12-31T01:17:08.162Z,24.53
2022-12-31T01:19:35.108Z,22.33
2022-12-31T01:22:02.296Z,23.07
2022-12-31T01:24:29.311Z,22.93
2022-12-31T01:26:57.958Z,22.80
2022-12-31T01:29:25.070Z,22.53
2022-12-31T01:31:52.336Z,23.53
2022-12-31T01:34:19.327Z,24.67
2022-12-31T01:36:46.595Z,23.40
2022-12-31T01:39:13.679Z,23.07
2022-12-31T01:41:43.721Z,23.83
2022-12-31T01:44:13.688Z,21.97
2022-12-31T01:46:59.020Z,22.77
2022-12-31T01:49:35.283Z,22.20
2022-12-31T01:52:15.663Z,23.30
2022-12-31T01:54:46.599Z,22.27
2022-12-31T01:57:14.635Z,23.43
2022-12-31T01:59:42.415Z,21.10
2022-12-31T02:02:10.433Z,21.47
2022-12-31T02:04:37.588Z,21.40
2022-12-31T02:07:07.777Z,21.53
2022-12-31T02:09:38.922Z,20.77
2022-12-31T02:12:07.908Z,20.83
2022-12-31T02:15:01.214Z,21.97
2022-12-31T02:17:31.212Z,20.27
2022-12-31T02:20:39.997Z,20.93
2022-12-31T02:23:09.910Z,19.57
2022-12-31T02:25:55.867Z,20.23
2022-12-31T02:28:50.641Z,20.73
2022-12-31T02:31:48.496Z,20.77
2022-12-31T02:34:24.672Z,20.07
2022-12-31T02:36:54.973Z,18.27
2022-12-31T02:39:22.547Z,16.77
2022-12-31T02:41:50.437Z,19.83
2022-12-31T02:44:30.588Z,18.40
2022-12-31T02:47:06.289Z,19.97
2022-12-31T02:49:51.571Z,18.63
2022-12-31T02:52:33.780Z,18.20
2022-12-31T02:55:13.482Z,18.20
2022-12-31T02:57:51.320Z,17.40
2022-12-31T03:00:37.181Z,17.47
2022-12-31T03:03:05.775Z,17.50
2022-12-31T03:05:38.798Z,16.33
2022-12-31T03:08:05.827Z,15.57
2022-12-31T03:10:33.118Z,15.50
2022-12-31T03:13:00.471Z,15.30
2022-12-31T03:15:32.753Z,16.93
2022-12-31T03:18:06.449Z,13.43
2022-12-31T03:20:57.755Z,14.00
2022-12-31T03:23:42.562Z,12.83
2022-12-31T03:26:11.977Z,13.00
2022-12-31T03:28:41.856Z,12.37
2022-12-31T03:31:09.333Z,13.50
2022-12-31T03:33:40.524Z,14.67
2022-12-31T03:36:14.946Z,12.63
2022-12-31T03:38:42.155Z,13.07
2022-12-31T03:41:12.761Z,13.83
2022-12-31T03:43:39.736Z,14.30
2022-12-31T03:46:07.589Z,11.60
2022-12-31T03:48:34.536Z,11.50
2022-12-31T03:51:01.773Z,10.70
2022-12-31T03:53:28.705Z,12.40
2022-12-31T03:55:56.066Z,10.63
2022-12-31T03:58:23.177Z,10.73
2022-12-31T04:00:50.916Z,11.63
2022-12-31T04:03:18.162Z,11.20
2022-12-31T04:05:45.937Z,9.50
2022-12-31T04:08:12.868Z,10.80
2022-12-31T04:10:40.053Z,10.27
2022-12-31T04:13:07.017Z,10.63
2022-12-31T04:15:34.213Z,11.50
2022-12-31T04:18:01.360Z,9.43
2022-12-31T04:20:28.612Z,9.33
2022-12-31T04:22:55.555Z,10.30
2022-12-31T04:25:22.794Z,10.20
2022-12-31T04:27:49.712Z,9.43
2022-12-31T04:30:17.107Z,10.30
2022-12-31T04:32:44.569Z,9.50
2022-12-31T04:35:12.105Z,9.60
2022-12-31T04:37:39.333Z,9.97
2022-12-31T04:40:07.913Z,9.83
2022-12-31T04:42:35.468Z,10.40
2022-12-31T04:45:02.775Z,10.30
2022-12-31T04:47:29.845Z,10.60
2022-12-31T04:49:57.144Z,9.67
2022-12-31T04:52:24.225Z,10.97
2022-12-31T04:54:51.431Z,10.63
2022-12-31T04:57:18.371Z,10.47
2022-12-31T04:59:45.587Z,9.97
2022-12-31T05:02:12.673Z,10.60
2022-12-31T05:04:40.113Z,10.00
2022-12-31T05:07:07.090Z,10.20
2022-12-31T05:09:34.367Z,9.67
2022-12-31T05:12:01.382Z,10.40
2022-12-31T05:14:28.735Z,10.33
2022-12-31T05:16:55.848Z,10.63
2022-12-31T05:19:23.187Z,10.73
2022-12-31T05:22:10.104Z,10.13
2022-12-31T05:24:37.405Z,9.50
2022-12-31T05:27:04.393Z,10.20
2022-12-31T05:29:31.704Z,10.80
2022-12-31T05:31:58.715Z,11.53
2022-12-31T05:34:25.942Z,11.60
2022-12-31T05:36:53.057Z,11.60
2022-12-31T05:39:20.296Z,11.57
2022-12-31T05:41:47.355Z,12.43
2022-12-31T05:44:14.678Z,13.10
2022-12-31T05:46:41.593Z,14.43
2022-12-31T05:49:09.002Z,14.20
2022-12-31T05:51:36.005Z,13.43
2022-12-31T05:54:03.310Z,12.37
2022-12-31T05:56:30.321Z,12.30
2022-12-31T05:58:57.557Z,14.43
2022-12-31T06:01:24.714Z,15.00
2022-12-31T06:03:52.043Z,13.73
2022-12-31T06:06:19.056Z,15.83
2022-12-31T06:08:50.252Z,14.87
2022-12-31T06:11:17.237Z,15.67
2022-12-31T06:13:44.467Z,15.47
2022-12-31T06:16:11.893Z,11.33
2022-12-31T06:18:39.134Z,11.10
2022-12-31T06:21:06.246Z,11.37
2022-12-31T06:23:33.490Z,11.63
2022-12-31T06:26:07.084Z,12.13
2022-12-31T06:28:34.366Z,11.67
2022-12-31T06:31:07.010Z,10.50
2022-12-31T06:33:35.342Z,10.40
2022-12-31T06:36:05.485Z,11.17
2022-12-31T06:38:34.396Z,11.10
2022-12-31T06:41:05.371Z,10.60
2022-12-31T06:43:32.572Z,10.83
2022-12-31T06:46:03.806Z,10.30
2022-12-31T06:48:31.607Z,10.00
2022-12-31T06:51:05.393Z,10.70
2022-12-31T06:53:32.846Z,11.97
2022-12-31T06:56:09.998Z,18.50
2022-12-31T06:58:37.484Z,20.87
2022-12-31T07:01:35.191Z,19.70
2022-12-31T07:04:38.177Z,17.23
2022-12-31T07:07:20.847Z,14.93
2022-12-31T07:10:30.133Z,10.43
2022-12-31T07:13:03.464Z,12.57
2022-12-31T07:15:48.573Z,14.93
2022-12-31T07:18:24.472Z,11.07
2022-12-31T07:20:52.050Z,10.00
2022-12-31T07:23:19.530Z,9.63
2022-12-31T07:26:25.783Z,10.07
2022-12-31T07:29:07.923Z,9.03
2022-12-31T07:32:09.436Z,9.80
2022-12-31T07:34:57.633Z,9.70
2022-12-31T07:37:27.586Z,10.67
2022-12-31T07:40:03.576Z,10.27
2022-12-31T07:42:41.679Z,10.53
2022-12-31T07:45:20.805Z,15.10
2022-12-31T07:47:48.445Z,15.53
2022-12-31T07:50:17.854Z,15.40
2022-12-31T07:52:46.049Z,15.10
2022-12-31T07:55:13.366Z,14.27
2022-12-31T07:58:07.784Z,16.20
2022-12-31T08:00:34.790Z,15.07
2022-12-31T08:03:11.076Z,15.10
2022-12-31T08:05:53.223Z,14.90
2022-12-31T08:08:29.455Z,13.63
2022-12-31T08:11:02.647Z,14.00
2022-12-31T08:13:30.425Z,12.40
2022-12-31T08:15:57.705Z,15.47
2022-12-31T08:18:25.303Z,12.13
2022-12-31T08:21:34.986Z,11.10
2022-12-31T08:24:02.473Z,11.43
2022-12-31T08:26:53.365Z,11.87
2022-12-31T08:29:38.512Z,11.10
2022-12-31T08:32:40.668Z,11.60
2022-12-31T08:35:34.572Z,10.60
2022-12-31T08:38:31.197Z,10.70
2022-12-31T08:41:04.508Z,10.67
2022-12-31T08:43:37.355Z,10.50
2022-12-31T08:46:11.135Z,11.23
2022-12-31T08:48:42.181Z,10.97
2022-12-31T08:51:17.903Z,9.83
2022-12-31T08:53:45.151Z,10.50
2022-12-31T08:56:24.223Z,11.50
2022-12-31T08:59:31.678Z,10.17
2022-12-31T09:02:12.819Z,10.77
2022-12-31T09:04:54.877Z,10.73
2022-12-31T09:07:37.428Z,10.40
2022-12-31T09:10:28.371Z,11.33
2022-12-31T09:13:30.620Z,11.40
2022-12-31T09:16:14.326Z,11.23
2022-12-31T09:18:42.670Z,11.20
2022-12-31T09:21:12.495Z,13.00
2022-12-31T09:23:40.357Z,10.17
2022-12-31T09:26:23.380Z,9.87
2022-12-31T09:29:07.100Z,9.83
2022-12-31T09:31:47.748Z,10.17
2022-12-31T09:34:29.902Z,9.73
2022-12-31T09:37:02.976Z,9.87
2022-12-31T09:39:41.016Z,10.40
2022-12-31T09:42:42.116Z,9.60
2022-12-31T09:45:25.067Z,9.43
2022-12-31T09:48:29.268Z,10.43
2022-12-31T09:51:05.354Z,11.03
2022-12-31T09:53:50.967Z,12.43
2022-12-31T09:56:29.143Z,12.43
2022-12-31T09:59:24.577Z,11.67
2022-12-31T10:02:11.729Z,13.73
2022-12-31T10:05:05.616Z,11.77
2022-12-31T10:07:56.220Z,9.60
2022-12-31T10:10:33.058Z,9.30
2022-12-31T10:13:21.557Z,11.70
2022-12-31T10:16:07.132Z,10.60
2022-12-31T10:19:05.574Z,9.00
2022-12-31T10:21:38.270Z,9.67
2022-12-31T10:24:32.782Z,7.83
2022-12-31T10:27:27.898Z,9.40
2022-12-31T10:29:59.245Z,8.80
2022-12-31T10:32:31.167Z,7.57
2022-12-31T10:35:31.187Z,7.63
2022-12-31T10:38:03.258Z,7.90
2022-12-31T10:41:04.082Z,7.90
2022-12-31T10:43:59.236Z,9.03
2022-12-31T10:46:48.645Z,9.37
2022-12-31T10:49:53.251Z,8.77
2022-12-31T10:52:26.382Z,8.70
2022-12-31T10:54:56.054Z,7.90
2022-12-31T10:57:53.576Z,7.33
2022-12-31T11:00:23.962Z,8.10
2022-12-31T11:03:35.186Z,6.87
2022-12-31T11:06:20.487Z,7.87
2022-12-31T11:09:12.365Z,7.43
2022-12-31T11:11:42.123Z,7.60
2022-12-31T11:14:21.296Z,7.30
2022-12-31T11:17:03.544Z,7.03
2022-12-31T11:19:49.174Z,7.17
2022-12-31T11:22:22.266Z,6.97
2022-12-31T11:25:11.084Z,7.00
2022-12-31T11:27:49.438Z,6.90
2022-12-31T11:30:41.332Z,7.97
2022-12-31T11:33:50.329Z,7.77
2022-12-31T11:36:55.376Z,8.17
2022-12-31T11:39:49.974Z,7.70
2022-12-31T11:42:54.878Z,7.83
2022-12-31T11:45:55.713Z,8.00
2022-12-31T11:48:49.556Z,7.70
2022-12-31T11:51:16.561Z,7.23
2022-12-31T11:53:57.655Z,7.80
2022-12-31T11:56:30.390Z,6.50
2022-12-31T11:58:57.908Z,6.90
2022-12-31T12:01:27.258Z,7.47
2022-12-31T12:03:54.588Z,6.17
2022-12-31T12:06:27.368Z,6.93
2022-12-31T12:09:01.523Z,6.07
2022-12-31T12:11:32.448Z,6.30
2022-12-31T12:13:59.717Z,6.70
2022-12-31T12:16:28.378Z,6.30
2022-12-31T12:19:03.347Z,6.20
2022-12-31T12:21:30.567Z,7.70
2022-12-31T12:23:59.113Z,6.67
2022-12-31T12:26:36.303Z,7.07
2022-12-31T12:29:18.638Z,8.33
2022-12-31T12:32:22.336Z,7.63
2022-12-31T12:34:50.273Z,7.63
2022-12-31T12:37:33.165Z,8.23
2022-12-31T12:40:02.164Z,8.80
2022-12-31T12:42:30.086Z,9.03
2022-12-31T12:45:17.222Z,9.37
2022-12-31T12:47:45.973Z,9.40
2022-12-31T12:50:44.452Z,8.60
2022-12-31T12:53:39.709Z,9.70
2022-12-31T12:56:44.642Z,10.03
2022-12-31T12:59:31.817Z,9.90
2022-12-31T13:11:32.770Z,8.70
2022-12-31T13:14:21.391Z,8.53
2022-12-31T13:17:06.809Z,8.17
2022-12-31T13:19:50.419Z,8.60
2022-12-31T13:22:22.520Z,8.13
2022-12-31T13:31:06.587Z,8.13
2022-12-31T13:33:39.370Z,8.30
2022-12-31T13:36:10.192Z,8.20
2022-12-31T13:38:43.535Z,9.03
2022-12-31T13:41:25.526Z,8.00
2022-12-31T13:43:55.345Z,8.77
2022-12-31T13:46:46.377Z,8.80
2022-12-31T13:49:31.590Z,9.60
2022-12-31T13:52:22.380Z,9.07
2022-12-31T13:55:24.794Z,8.87
2022-12-31T13:57:54.035Z,8.70
2022-12-31T14:00:27.468Z,8.83
2022-12-31T14:03:09.128Z,8.50
2022-12-31T14:05:56.617Z,8.20
2022-12-31T14:08:24.016Z,8.70
2022-12-31T14:11:15.892Z,8.00
2022-12-31T14:13:54.998Z,7.50
2022-12-31T14:16:51.112Z,7.60
2022-12-31T14:19:42.186Z,7.87
2022-12-31T14:22:33.522Z,8.00
2022-12-31T14:25:03.613Z,7.40
2022-12-31T14:27:41.877Z,8.13
2022-12-31T14:30:16.601Z,7.57
2022-12-31T14:33:07.245Z,6.87
2022-12-31T14:35:53.603Z,7.30
2022-12-31T14:38:25.979Z,7.77
2022-12-31T14:41:17.616Z,8.30
2022-12-31T14:44:10.247Z,8.10
2022-12-31T14:47:05.443Z,8.23
2022-12-31T14:49:56.986Z,8.00
2022-12-31T14:52:30.048Z,7.23
2022-12-31T14:55:07.203Z,8.10
2022-12-31T14:58:09.605Z,7.73
2022-12-31T15:00:27.423Z,7.83
2022-12-31T15:03:25.896Z,7.50
2022-12-31T15:06:31.340Z,8.77
2022-12-31T15:09:08.186Z,7.53
2022-12-31T15:12:00.056Z,8.07
2022-12-31T15:14:38.808Z,7.73
2022-12-31T15:17:40.876Z,7.63
2022-12-31T15:20:26.719Z,6.83
2022-12-31T15:22:54.850Z,6.50
2022-12-31T15:25:22.067Z,7.30
2022-12-31T15:27:49.719Z,7.97
2022-12-31T15:30:46.928Z,7.67
2022-12-31T15:33:33.627Z,6.97
2022-12-31T15:36:12.527Z,7.70
2022-12-31T15:38:41.792Z,7.77
2022-12-31T15:41:16.831Z,7.40
2022-12-31T15:43:54.589Z,7.83
2022-12-31T15:46:29.074Z,7.47
2022-12-31T15:49:18.558Z,8.17
2022-12-31T15:52:00.804Z,7.20
2022-12-31T15:54:41.127Z,7.53
2022-12-31T15:57:20.281Z,7.87
2022-12-31T15:59:47.556Z,7.70
2022-12-31T16:02:26.051Z,7.70
2022-12-31T16:04:55.027Z,8.10
2022-12-31T16:07:24.274Z,7.77
2022-12-31T16:09:58.819Z,7.10
2022-12-31T16:12:33.051Z,8.37
2022-12-31T16:15:02.335Z,7.50
2022-12-31T16:17:32.709Z,7.17
2022-12-31T16:20:01.170Z,7.90
2022-12-31T16:22:38.330Z,7.60
2022-12-31T16:27:55.290Z,7.27
2022-12-31T16:30:33.247Z,6.80
2022-12-31T16:33:03.703Z,7.30
2022-12-31T16:35:36.594Z,8.40
2022-12-31T16:38:12.594Z,7.37
2022-12-31T16:40:41.567Z,7.17
2022-12-31T16:43:25.957Z,7.20
2022-12-31T16:45:55.032Z,7.43
2022-12-31T16:48:22.451Z,7.80
2022-12-31T16:50:53.392Z,7.00
2022-12-31T16:53:24.909Z,7.00
2022-12-31T16:56:01.894Z,6.73
2022-12-31T16:58:45.100Z,6.77
2022-12-31T17:01:17.182Z,7.30
2022-12-31T17:03:50.314Z,7.00
2022-12-31T17:06:20.077Z,7.13
2022-12-31T17:08:56.132Z,6.73
2022-12-31T17:11:35.421Z,7.87
2022-12-31T17:14:05.569Z,7.53
2022-12-31T17:16:34.937Z,6.97
2022-12-31T17:19:02.653Z,6.77
2022-12-31T17:21:31.451Z,6.90
2022-12-31T17:24:05.875Z,7.20
2022-12-31T17:26:37.846Z,6.77
2022-12-31T17:29:06.102Z,7.03
2022-12-31T17:31:35.033Z,7.00
2022-12-31T17:34:13.632Z,8.27
2022-12-31T17:36:51.331Z,7.30
2022-12-31T17:39:21.229Z,7.37
2022-12-31T17:41:55.175Z,7.20
2022-12-31T17:44:29.245Z,6.93
2022-12-31T17:46:56.543Z,7.87
2022-12-31T17:49:29.606Z,7.80
2022-12-31T17:51:56.611Z,7.67
2022-12-31T17:54:23.984Z,7.67
2022-12-31T17:56:52.357Z,8.10
2022-12-31T17:59:23.837Z,7.97
2022-12-31T18:01:51.176Z,7.77
2022-12-31T18:04:20.817Z,8.67
2022-12-31T18:06:47.789Z,8.67
2022-12-31T18:09:16.412Z,8.60
2022-12-31T18:11:44.236Z,8.47
2022-12-31T18:14:15.786Z,8.40
2022-12-31T18:16:42.938Z,8.20
2022-12-31T18:19:37.856Z,9.23
2022-12-31T18:22:02.119Z,8.13
2022-12-31T18:24:29.314Z,8.27
2022-12-31T18:26:56.276Z,8.30
2022-12-31T18:29:23.627Z,8.03
2022-12-31T18:31:51.168Z,8.50
2022-12-31T18:34:19.026Z,10.70
2022-12-31T18:36:46.563Z,9.43
2022-12-31T18:39:13.819Z,10.20
2022-12-31T18:41:49.654Z,9.40
2022-12-31T18:44:17.536Z,8.60
2022-12-31T18:46:44.558Z,8.30
2022-12-31T18:49:11.899Z,7.80
2022-12-31T18:51:38.863Z,8.10
2022-12-31T18:54:10.306Z,8.03
2022-12-31T18:56:41.821Z,7.97
2022-12-31T18:59:13.591Z,8.33
2022-12-31T19:01:41.407Z,9.10
2022-12-31T19:04:22.892Z,7.53
2022-12-31T19:06:53.930Z,7.73
2022-12-31T19:09:44.611Z,8.70
2022-12-31T19:12:12.941Z,8.37
2022-12-31T19:14:40.521Z,7.60
2022-12-31T19:19:34.898Z,7.67
2022-12-31T19:22:02.946Z,7.40
2022-12-31T19:24:30.378Z,8.07
2022-12-31T19:26:57.452Z,8.57
2022-12-31T19:29:27.135Z,8.40
2022-12-31T19:31:54.694Z,8.13
2022-12-31T19:34:22.023Z,8.83
2022-12-31T19:36:49.024Z,9.20
2022-12-31T19:39:19.947Z,7.80
2022-12-31T19:41:52.954Z,7.87
2022-12-31T19:44:21.875Z,9.73
2022-12-31T19:46:49.390Z,9.60
2022-12-31T19:49:16.846Z,10.47
2022-12-31T19:51:43.826Z,9.00
2022-12-31T19:54:13.465Z,10.83
2022-12-31T19:56:40.986Z,8.60
2022-12-31T19:59:10.658Z,8.70
2022-12-31T20:01:38.216Z,9.13
2022-12-31T20:04:05.934Z,9.40
2022-12-31T20:06:33.120Z,10.53
2022-12-31T20:09:00.402Z,9.00
2022-12-31T20:11:27.817Z,8.60
2022-12-31T20:13:55.043Z,8.47
2022-12-31T20:16:26.878Z,8.30
2022-12-31T20:18:55.184Z,8.07
2022-12-31T20:21:25.450Z,8.00
2022-12-31T20:23:53.893Z,8.80
2022-12-31T20:26:22.971Z,7.90
2022-12-31T20:28:51.079Z,7.87
2022-12-31T20:31:21.422Z,7.83
2022-12-31T20:33:49.485Z,8.77
2022-12-31T20:36:17.542Z,8.90
2022-12-31T20:38:45.092Z,8.60
2022-12-31T20:41:14.556Z,8.50
2022-12-31T20:43:41.688Z,8.47
2022-12-31T20:46:15.716Z,8.60
2022-12-31T20:48:44.448Z,8.27
2022-12-31T20:51:13.072Z,8.30
2022-12-31T20:53:40.446Z,8.90
2022-12-31T20:56:09.424Z,9.20
2022-12-31T20:58:36.989Z,9.43
2022-12-31T21:01:08.993Z,8.90
2022-12-31T21:06:29.119Z,9.40
2022-12-31T21:08:57.963Z,10.80
2022-12-31T21:11:44.212Z,9.40
2022-12-31T21:14:11.159Z,8.97
2022-12-31T21:16:38.557Z,9.20
2022-12-31T21:19:05.719Z,8.50
2022-12-31T21:21:33.369Z,9.90
2022-12-31T21:24:00.324Z,10.50
2022-12-31T21:26:28.493Z,9.43
2022-12-31T21:28:55.484Z,8.57
2022-12-31T21:31:22.786Z,8.33
2022-12-31T21:33:49.919Z,8.63
2022-12-31T21:36:17.139Z,8.47
2022-12-31T21:38:44.723Z,7.97
2022-12-31T21:41:33.521Z,8.13
2022-12-31T21:44:01.221Z,8.00
2022-12-31T21:46:28.902Z,7.53
2022-12-31T21:48:57.860Z,8.17
2022-12-31T21:51:25.701Z,8.30
2022-12-31T21:53:52.919Z,7.50
2022-12-31T21:56:21.329Z,9.00
2022-12-31T21:59:15.341Z,7.67
2022-12-31T22:02:01.884Z,8.20
2022-12-31T22:05:01.013Z,7.80
2022-12-31T22:07:16.379Z,7.80
2022-12-31T22:09:43.332Z,7.80
2022-12-31T22:12:10.603Z,7.97
2022-12-31T22:14:37.663Z,7.47
2022-12-31T22:17:04.969Z,8.37
2022-12-31T22:19:35.942Z,7.40
2022-12-31T22:22:10.894Z,7.87
2022-12-31T22:24:37.839Z,8.43
2022-12-31T22:27:28.138Z,8.17
2022-12-31T22:29:51.961Z,8.40
2022-12-31T22:32:19.111Z,8.10
2022-12-31T22:34:46.088Z,8.03
2022-12-31T22:37:44.624Z,8.80
2022-12-31T22:40:00.272Z,8.47
2022-12-31T22:42:27.508Z,9.83
2022-12-31T22:44:54.431Z,8.70
2022-12-31T22:47:21.704Z,8.17
2022-12-31T22:49:48.698Z,8.23
2022-12-31T22:52:15.911Z,8.53
2022-12-31T22:54:42.858Z,8.23
2022-12-31T22:57:13.388Z,8.33
2022-12-31T22:59:45.200Z,8.07
2022-12-31T23:02:12.397Z,7.70
2022-12-31T23:04:40.009Z,9.83
2022-12-31T23:07:07.614Z,14.90
2022-12-31T23:09:53.117Z,11.33
2022-12-31T23:12:20.366Z,14.77
2022-12-31T23:15:05.996Z,18.63
2022-12-31T23:17:52.088Z,17.10
2022-12-31T23:20:43.256Z,17.20
2022-12-31T23:23:15.228Z,14.37
2022-12-31T23:25:48.404Z,15.00
2022-12-31T23:28:18.703Z,15.07
2022-12-31T23:30:45.801Z,15.37
2022-12-31T23:33:21.825Z,32.53
2022-12-31T23:35:49.310Z,16.23
2022-12-31T23:38:18.393Z,14.70
2022-12-31T23:40:45.743Z,15.20
2022-12-31T23:43:20.489Z,13.93
2022-12-31T23:45:51.745Z,12.83
2022-12-31T23:48:19.196Z,14.07
2022-12-31T23:50:53.088Z,13.03
2022-12-31T23:53:22.647Z,14.53
2022-12-31T23:55:49.761Z,13.70
2022-12-31T23:58:17.089Z,12.63
